Florida A & M, Florida
Current Conditions -  °F | °C
As of 12:53 AM on Tuesday 21 Oct 2014 (Local Time) from KTLH Reporting Station
Clear Clear  
Wind Chill: 64°   Ceiling: Unl
Heat Index: 64°   Visibility: 10mi
Dew Point: 60°   Wind: 0mph
Humidity: 87%   Direction: NA
Pressure: 29.98"   Gusts: NA
Location:  30.4262°N, 84.2888°W
Report Text: KTLH 210453Z AUTO 00000KT 10SM CLR 18/16 A2998 RMK AO2 SLP150 T01780156 402830117 $
Loading
Personal Weather Stations






























Interactive Weather Map
Tropical Storm Tracking
New forecast layout! Learn more

10-Day Weather Forecast

Advertisements
Track Severe Weather on mobile